ID Time Temp Humidity Light PM2.5 PM10 Voltage Extra Firmware Position Fcnt TTN version Gateways Distance RSSI LSNR Radiosettings
2026-05-08 21:27:06 18.75°C 43.4375% 7 μg/m³ 7 μg/m³ 3.29V v255 51.9897 / 5.05606 15953 ttn.v3 0.004km -55 9.8 867.5MHz, SF9BW125, 4/5CR
2026-05-08 21:09:49 19.5°C 42.0625% 10 μg/m³ 10 μg/m³ 3.29V v255 51.9897 / 5.05606 15952 ttn.v3 0.004km -56 10.5 868.5MHz, SF9BW125, 4/5CR
2026-05-08 20:52:32 19.75°C 40.25% 9 μg/m³ 10 μg/m³ 3.29V v255 51.9897 / 5.05606 15951 ttn.v3 0.004km -54 11.5 867.3MHz, SF9BW125, 4/5CR
2026-05-08 20:35:15 21.0625°C 36.8125% 7 μg/m³ 7 μg/m³ 3.29V v255 51.9897 / 5.05606 15950 ttn.v3 0.004km -55 12.5 868.3MHz, SF9BW125, 4/5CR
2026-05-08 20:17:57 22°C 33.375% 5 μg/m³ 5 μg/m³ 3.29V v255 51.9897 / 5.05606 15949 ttn.v3 0.004km -54 11.8 867.1MHz, SF9BW125, 4/5CR
2026-05-08 20:00:40 22.25°C 32.125% 6 μg/m³ 6 μg/m³ 3.29V v255 51.9897 / 5.05606 15948 ttn.v3 0.004km -56 12.2 868.1MHz, SF9BW125, 4/5CR
2026-05-08 19:43:23 22.9375°C 30.25% 5 μg/m³ 6 μg/m³ 3.29V v255 51.9897 / 5.05606 15947 ttn.v3 0.004km -55 12.8 867.9MHz, SF9BW125, 4/5CR
2026-05-08 19:26:05 23.5°C 27.625% 6 μg/m³ 6 μg/m³ 3.29V v255 51.9897 / 5.05606 15946 ttn.v3 0.004km -55 10 868.5MHz, SF9BW125, 4/5CR
2026-05-08 19:08:48 23.9375°C 30.375% 7 μg/m³ 7 μg/m³ 3.29V v255 51.9897 / 5.05606 15945 ttn.v3 0.004km -54 11.8 867.7MHz, SF9BW125, 4/5CR
2026-05-08 18:51:30 23.75°C 30.1875% 9 μg/m³ 10 μg/m³ 3.29V v255 51.9897 / 5.05606 15944 ttn.v3 0.004km -55 12.5 868.3MHz, SF9BW125, 4/5CR
2026-05-08 18:34:13 23.4375°C 30.5625% 6 μg/m³ 6 μg/m³ 3.29V v255 51.9897 / 5.05606 15943 ttn.v3 0.004km -55 9.2 867.5MHz, SF9BW125, 4/5CR
2026-05-08 18:16:56 23.1875°C 33.6875% 55 μg/m³ 87 μg/m³ 3.29V v255 51.9897 / 5.05606 15942 ttn.v3 0.004km -56 12 868.1MHz, SF9BW125, 4/5CR
2026-05-08 17:59:38 21.625°C 38% 14 μg/m³ 15 μg/m³ 3.29V v255 51.9897 / 5.05606 15941 ttn.v3 0.004km -54 12.5 867.3MHz, SF9BW125, 4/5CR
2026-05-08 17:42:21 21.5625°C 41.0625% 35 μg/m³ 47 μg/m³ 3.29V v255 51.9897 / 5.05606 15940 ttn.v3 0.004km -56 10.8 868.5MHz, SF9BW125, 4/5CR
2026-05-08 17:25:04 20.625°C 40.875% 9 μg/m³ 9 μg/m³ 3.29V v255 51.9897 / 5.05606 15939 ttn.v3 0.004km -54 11.5 867.1MHz, SF9BW125, 4/5CR
2026-05-08 17:07:47 20.125°C 43.5625% 17 μg/m³ 18 μg/m³ 3.29V v255 51.9897 / 5.05606 15938 ttn.v3 0.004km -55 12.8 868.3MHz, SF9BW125, 4/5CR
2026-05-08 16:50:30 20.125°C 42.0625% 11 μg/m³ 12 μg/m³ 3.29V v255 51.9897 / 5.05606 15937 ttn.v3 0.004km -55 13.2 867.9MHz, SF9BW125, 4/5CR
2026-05-08 16:34:21 20.3125°C 42.25% 13 μg/m³ 15 μg/m³ 3.29V v255 51.9897 / 5.05606 15936 ttn.v3 0.004km -55 13.8 868.1MHz, SF12BW125, 4/5CR
2026-05-08 16:16:05 20.5°C 40.3125% 11 μg/m³ 12 μg/m³ 3.29V v255 51.9897 / 5.05606 15935 ttn.v3 0.004km -55 13.2 867.7MHz, SF9BW125, 4/5CR
2026-05-08 15:58:47 20.8125°C 41.8125% 65469 μg/m³ 2075 μg/m³ 3.29V v255 51.9897 / 5.05606 15934 ttn.v3 0.004km -56 9.8 868.5MHz, SF9BW125, 4/5CR
2026-05-08 15:41:30 20.8125°C 39.9375% 12 μg/m³ 12 μg/m³ 3.29V v255 51.9897 / 5.05606 15933 ttn.v3 0.004km -54 10 867.5MHz, SF9BW125, 4/5CR
2026-05-08 15:24:13 21.125°C 39.3125% 11 μg/m³ 11 μg/m³ 3.29V v255 51.9897 / 5.05606 15932 ttn.v3 0.004km -55 13 868.3MHz, SF9BW125, 4/5CR
2026-05-08 15:06:56 22°C 33.25% 24 μg/m³ 28 μg/m³ 3.29V v255 51.9897 / 5.05606 15931 ttn.v3 0.004km -54 11.8 867.3MHz, SF9BW125, 4/5CR
2026-05-08 14:49:38 23.125°C 33.3125% 11 μg/m³ 11 μg/m³ 3.29V v255 51.9897 / 5.05606 15930 ttn.v3 0.004km -56 12.8 868.1MHz, SF9BW125, 4/5CR
2026-05-08 14:32:21 24.0625°C 25.3125% 7 μg/m³ 7 μg/m³ 3.29V v255 51.9897 / 5.05606 15929 ttn.v3 0.004km -54 12.8 867.1MHz, SF9BW125, 4/5CR
2026-05-08 14:15:03 25.9375°C 27.6875% 10 μg/m³ 10 μg/m³ 3.29V v255 51.9897 / 5.05606 15928 ttn.v3 0.004km -56 10.2 868.5MHz, SF9BW125, 4/5CR
2026-05-08 13:57:46 28.0625°C 22.625% 10 μg/m³ 10 μg/m³ 3.29V v255 51.9897 / 5.05606 15927 ttn.v3 0.004km -55 12.8 867.9MHz, SF9BW125, 4/5CR
2026-05-08 13:40:28 26.3125°C 29.5625% 13 μg/m³ 14 μg/m³ 3.29V v255 51.9897 / 5.05606 15926 ttn.v3 0.004km -56 12.2 868.3MHz, SF9BW125, 4/5CR
2026-05-08 13:23:10 23.9375°C 35.25% 14 μg/m³ 14 μg/m³ 3.29V v255 51.9897 / 5.05606 15925 ttn.v3 0.004km -56 12 867.7MHz, SF9BW125, 4/5CR
2026-05-08 13:05:53 24.0625°C 34.4375% 14 μg/m³ 14 μg/m³ 3.29V v255 51.9897 / 5.05606 15924 ttn.v3 0.004km -56 11.5 868.1MHz, SF9BW125, 4/5CR
2026-05-08 12:48:35 23.1875°C 35.0625% 15 μg/m³ 16 μg/m³ 3.29V v255 51.9897 / 5.05606 15923 ttn.v3 0.004km -56 10.8 867.5MHz, SF9BW125, 4/5CR
2026-05-08 12:31:18 22.625°C 38.375% 15 μg/m³ 15 μg/m³ 3.29V v255 51.9897 / 5.05606 15922 ttn.v3 0.004km -56 9.2 868.5MHz, SF9BW125, 4/5CR
2026-05-08 12:14:01 22.0625°C 39.8125% 11 μg/m³ 11 μg/m³ 3.29V v255 51.9897 / 5.05606 15921 ttn.v3 0.004km -55 13.2 867.3MHz, SF9BW125, 4/5CR
2026-05-08 11:56:43 20.8125°C 41.1875% 13 μg/m³ 13 μg/m³ 3.29V v255 51.9897 / 5.05606 15920 ttn.v3 0.004km -56 11.8 868.3MHz, SF9BW125, 4/5CR
2026-05-08 11:39:26 20°C 44.125% 10 μg/m³ 10 μg/m³ 3.29V v255 51.9897 / 5.05606 15919 ttn.v3 0.004km -56 12.5 867.1MHz, SF9BW125, 4/5CR
2026-05-08 11:22:09 19.0625°C 46.4375% 13 μg/m³ 13 μg/m³ 3.29V v255 51.9897 / 5.05606 15918 ttn.v3 0.004km -57 13 868.1MHz, SF9BW125, 4/5CR
2026-05-08 11:04:52 18.5625°C 48.625% 15 μg/m³ 16 μg/m³ 3.29V v255 51.9897 / 5.05606 15917 ttn.v3 0.004km -56 12.2 867.9MHz, SF9BW125, 4/5CR
2026-05-08 10:47:35 17.5°C 50.6875% 13 μg/m³ 14 μg/m³ 3.29V v255 51.9897 / 5.05606 15916 ttn.v3 0.004km -57 9 868.5MHz, SF9BW125, 4/5CR
2026-05-08 10:30:17 17.1875°C 52.875% 24 μg/m³ 28 μg/m³ 3.29V v255 51.9897 / 5.05606 15915 ttn.v3 0.004km -55 12.2 867.7MHz, SF9BW125, 4/5CR
2026-05-08 10:13:00 16.625°C 54.9375% 17 μg/m³ 17 μg/m³ 3.29V v255 51.9897 / 5.05606 15914 ttn.v3 0.004km -58 12.5 868.3MHz, SF9BW125, 4/5CR
2026-05-08 09:55:43 15.9375°C 56.625% 20 μg/m³ 20 μg/m³ 3.29V v255 51.9897 / 5.05606 15913 ttn.v3 0.004km -56 10.2 867.5MHz, SF9BW125, 4/5CR
2026-05-08 09:38:26 15.25°C 58.0625% 19 μg/m³ 19 μg/m³ 3.29V v255 51.9897 / 5.05606 15912 ttn.v3 0.004km -57 13 868.1MHz, SF9BW125, 4/5CR
2026-05-08 09:21:08 14.6875°C 60.8125% 24 μg/m³ 29 μg/m³ 3.29V v255 51.9897 / 5.05606 15911 ttn.v3 0.004km -55 12.5 867.3MHz, SF9BW125, 4/5CR
2026-05-08 09:03:51 14.125°C 61.75% 22 μg/m³ 23 μg/m³ 3.29V v255 51.9897 / 5.05606 15910 ttn.v3 0.004km -57 9.2 868.5MHz, SF9BW125, 4/5CR
2026-05-08 08:46:34 14.0625°C 63.125% 27 μg/m³ 29 μg/m³ 3.29V v255 51.9897 / 5.05606 15909 ttn.v3 0.004km -56 12.5 867.1MHz, SF9BW125, 4/5CR
2026-05-08 08:29:16 13.75°C 63.875% 25 μg/m³ 26 μg/m³ 3.29V v255 51.9897 / 5.05606 15908 ttn.v3 0.004km -55 12.8 868.3MHz, SF9BW125, 4/5CR
2026-05-08 08:11:59 13.3125°C 64.9375% 24 μg/m³ 25 μg/m³ 3.29V v255 51.9897 / 5.05606 15907 ttn.v3 0.004km -56 12 867.9MHz, SF9BW125, 4/5CR
2026-05-08 07:54:41 13.1875°C 65.6875% 25 μg/m³ 26 μg/m³ 3.29V v255 51.9897 / 5.05606 15906 ttn.v3 0.004km -56 12 868.1MHz, SF9BW125, 4/5CR
2026-05-08 07:37:24 13.0625°C 65.5625% 32 μg/m³ 35 μg/m³ 3.29V v255 51.9897 / 5.05606 15905 ttn.v3 0.004km -55 13 867.7MHz, SF9BW125, 4/5CR
2026-05-08 07:20:07 13°C 65.6875% 28 μg/m³ 30 μg/m³ 3.29V v255 51.9897 / 5.05606 15904 ttn.v3 0.004km -57 9.5 868.5MHz, SF9BW125, 4/5CR
2026-05-08 07:02:49 12.9375°C 66.3125% 28 μg/m³ 32 μg/m³ 3.29V v255 51.9897 / 5.05606 15903 ttn.v3 0.004km -54 9.5 867.5MHz, SF9BW125, 4/5CR
2026-05-08 06:45:32 13°C 65.875% 36 μg/m³ 37 μg/m³ 3.29V v255 51.9897 / 5.05606 15902 ttn.v3 0.004km -57 12.8 868.3MHz, SF9BW125, 4/5CR
2026-05-08 06:28:14 12.875°C 65.875% 29 μg/m³ 31 μg/m³ 3.29V v255 51.9897 / 5.05606 15901 ttn.v3 0.004km -55 13 867.3MHz, SF9BW125, 4/5CR
2026-05-08 06:10:57 13.0625°C 65.5% 29 μg/m³ 33 μg/m³ 3.29V v255 51.9897 / 5.05606 15900 ttn.v3 0.004km -57 13 868.1MHz, SF9BW125, 4/5CR
2026-05-08 05:53:39 12.9375°C 65% 26 μg/m³ 26 μg/m³ 3.29V v255 51.9897 / 5.05606 15899 ttn.v3 0.004km -55 12.8 867.1MHz, SF9BW125, 4/5CR
2026-05-08 05:36:22 12.9375°C 64.875% 26 μg/m³ 27 μg/m³ 3.29V v255 51.9897 / 5.05606 15898 ttn.v3 0.004km -57 10 868.5MHz, SF9BW125, 4/5CR
2026-05-08 05:19:05 13.1875°C 64.375% 27 μg/m³ 28 μg/m³ 3.29V v255 51.9897 / 5.05606 15897 ttn.v3 0.004km -56 13.2 867.9MHz, SF9BW125, 4/5CR
2026-05-08 05:01:47 13.1875°C 63.875% 31 μg/m³ 32 μg/m³ 3.29V v255 51.9897 / 5.05606 15896 ttn.v3 0.004km -56 12.5 868.3MHz, SF9BW125, 4/5CR
2026-05-08 04:44:30 13.125°C 64.625% 26 μg/m³ 27 μg/m³ 3.29V v255 51.9897 / 5.05606 15895 ttn.v3 0.004km -55 12.8 867.7MHz, SF9BW125, 4/5CR
2026-05-08 04:27:12 13.3125°C 64.1875% 28 μg/m³ 30 μg/m³ 3.29V v255 51.9897 / 5.05606 15894 ttn.v3 0.004km -59 11.8 868.1MHz, SF9BW125, 4/5CR
2026-05-08 04:09:55 13.4375°C 63.0625% 22 μg/m³ 24 μg/m³ 3.29V v255 51.9897 / 5.05606 15893 ttn.v3 0.004km -57 10 867.5MHz, SF9BW125, 4/5CR
2026-05-08 03:52:38 13.6875°C 62.0625% 17 μg/m³ 18 μg/m³ 3.29V v255 51.9897 / 5.05606 15892 ttn.v3 0.004km -57 9.2 868.5MHz, SF9BW125, 4/5CR
2026-05-08 03:35:20 13.8125°C 61.8125% 21 μg/m³ 21 μg/m³ 3.29V v255 51.9897 / 5.05606 15891 ttn.v3 0.004km -55 13.2 867.3MHz, SF9BW125, 4/5CR
2026-05-08 03:18:03 13.8125°C 61.4375% 19 μg/m³ 21 μg/m³ 3.29V v255 51.9897 / 5.05606 15890 ttn.v3 0.004km -56 12 868.3MHz, SF9BW125, 4/5CR
2026-05-08 03:00:46 14°C 60.875% 18 μg/m³ 20 μg/m³ 3.29V v255 51.9897 / 5.05606 15889 ttn.v3 0.004km -55 12.8 867.1MHz, SF9BW125, 4/5CR
2026-05-08 02:43:28 14.0625°C 61.4375% 17 μg/m³ 17 μg/m³ 3.29V v255 51.9897 / 5.05606 15888 ttn.v3 0.004km -57 12 868.1MHz, SF9BW125, 4/5CR
2026-05-08 02:26:11 14.1875°C 60.375% 19 μg/m³ 20 μg/m³ 3.29V v255 51.9897 / 5.05606 15887 ttn.v3 0.004km -57 12.5 867.9MHz, SF9BW125, 4/5CR
2026-05-08 02:08:54 14.3125°C 60.25% 18 μg/m³ 18 μg/m³ 3.29V v255 51.9897 / 5.05606 15886 ttn.v3 0.004km -57 9.8 868.5MHz, SF9BW125, 4/5CR
2026-05-08 01:51:36 14.4375°C 59.8125% 18 μg/m³ 20 μg/m³ 3.29V v255 51.9897 / 5.05606 15885 ttn.v3 0.004km -55 12.5 867.7MHz, SF9BW125, 4/5CR
2026-05-08 01:34:19 14.5°C 59.75% 15 μg/m³ 16 μg/m³ 3.29V v255 51.9897 / 5.05606 15884 ttn.v3 0.004km -57 12.8 868.3MHz, SF9BW125, 4/5CR
2026-05-08 01:17:02 14.6875°C 58.5% 16 μg/m³ 17 μg/m³ 3.29V v255 51.9897 / 5.05606 15883 ttn.v3 0.004km -56 9.2 867.5MHz, SF9BW125, 4/5CR
2026-05-08 00:59:44 14.8125°C 58.125% 12 μg/m³ 12 μg/m³ 3.29V v255 51.9897 / 5.05606 15882 ttn.v3 0.004km -56 12 868.1MHz, SF9BW125, 4/5CR
2026-05-08 00:42:27 14.8125°C 56.8125% 13 μg/m³ 13 μg/m³ 3.29V v255 51.9897 / 5.05606 15881 ttn.v3 0.004km -57 12.2 867.3MHz, SF9BW125, 4/5CR
2026-05-08 00:25:10 14.9375°C 55.4375% 10 μg/m³ 10 μg/m³ 3.29V v255 51.9897 / 5.05606 15880 ttn.v3 0.004km -56 9.2 868.5MHz, SF9BW125, 4/5CR
2026-05-08 00:07:52 14.875°C 55.6875% 11 μg/m³ 11 μg/m³ 3.29V v255 51.9897 / 5.05606 15879 ttn.v3 0.004km -56 12.2 867.1MHz, SF9BW125, 4/5CR
2026-05-07 23:50:35 14.9375°C 53.5625% 4 μg/m³ 4 μg/m³ 3.29V v255 51.9897 / 5.05606 15878 ttn.v3 0.004km -58 12 868.3MHz, SF9BW125, 4/5CR
2026-05-07 23:33:18 14.9375°C 53.0625% 4 μg/m³ 4 μg/m³ 3.29V v255 51.9897 / 5.05606 15877 ttn.v3 0.004km -57 12.8 867.9MHz, SF9BW125, 4/5CR
2026-05-07 23:16:00 15.0625°C 51.5625% 3 μg/m³ 3 μg/m³ 3.29V v255 51.9897 / 5.05606 15876 ttn.v3 0.004km -57 13 868.1MHz, SF9BW125, 4/5CR
2026-05-07 22:58:43 15.375°C 50.6875% 4 μg/m³ 4 μg/m³ 3.29V v255 51.9897 / 5.05606 15875 ttn.v3 0.004km -56 12.2 867.7MHz, SF9BW125, 4/5CR
2026-05-07 22:41:26 15.625°C 49.5625% 3 μg/m³ 3 μg/m³ 3.29V v255 51.9897 / 5.05606 15874 ttn.v3 0.004km -56 9.2 868.5MHz, SF9BW125, 4/5CR
2026-05-07 22:24:09 15.875°C 48.625% 5 μg/m³ 5 μg/m³ 3.29V v255 51.9897 / 5.05606 15873 ttn.v3 0.004km -56 10.5 867.5MHz, SF9BW125, 4/5CR
2026-05-07 22:06:51 16.125°C 48.125% 2 μg/m³ 2 μg/m³ 3.29V v255 51.9897 / 5.05606 15872 ttn.v3 0.004km -56 12.2 868.3MHz, SF9BW125, 4/5CR
2026-05-07 21:49:34 16.4375°C 46.125% 5 μg/m³ 5 μg/m³ 3.29V v255 51.9897 / 5.05606 15871 ttn.v3 0.004km -55 12.8 867.3MHz, SF9BW125, 4/5CR
2026-05-07 21:32:17 16.625°C 46.5625% 5 μg/m³ 5 μg/m³ 3.29V v255 51.9897 / 5.05606 15870 ttn.v3 0.004km -57 13.2 868.1MHz, SF9BW125, 4/5CR
2026-05-07 21:15:00 16.8125°C 45.625% 6 μg/m³ 8 μg/m³ 3.29V v255 51.9897 / 5.05606 15869 ttn.v3 0.004km -55 13 867.1MHz, SF9BW125, 4/5CR
2026-05-07 20:57:43 16.8125°C 45% 2 μg/m³ 2 μg/m³ 3.29V v255 51.9897 / 5.05606 15868 ttn.v3 0.004km -56 9.2 868.5MHz, SF9BW125, 4/5CR
2026-05-07 20:40:25 17.1875°C 44.6875% 3 μg/m³ 3 μg/m³ 3.29V v255 51.9897 / 5.05606 15867 ttn.v3 0.004km -56 11.8 867.9MHz, SF9BW125, 4/5CR
2026-05-07 20:23:08 17.5°C 44.625% 3 μg/m³ 4 μg/m³ 3.29V v255 51.9897 / 5.05606 15866 ttn.v3 0.004km -56 12 868.3MHz, SF9BW125, 4/5CR
2026-05-07 20:05:51 17.8125°C 44.25% 2 μg/m³ 2 μg/m³ 3.29V v255 51.9897 / 5.05606 15865 ttn.v3 0.004km -55 12.5 867.7MHz, SF9BW125, 4/5CR
2026-05-07 19:48:34 18.125°C 41.875% 3 μg/m³ 3 μg/m³ 3.29V v255 51.9897 / 5.05606 15864 ttn.v3 0.004km -57 12.2 868.1MHz, SF9BW125, 4/5CR
2026-05-07 19:31:16 18.25°C 43% 4 μg/m³ 6 μg/m³ 3.29V v255 51.9897 / 5.05606 15863 ttn.v3 0.004km -56 10.5 867.5MHz, SF9BW125, 4/5CR
2026-05-07 19:13:59 18.6875°C 41.75% 8 μg/m³ 12 μg/m³ 3.29V v255 51.9897 / 5.05606 15862 ttn.v3 0.004km -56 9.5 868.5MHz, SF9BW125, 4/5CR
2026-05-07 18:56:42 19°C 39.5% 2 μg/m³ 3 μg/m³ 3.29V v255 51.9897 / 5.05606 15861 ttn.v3 0.004km -55 12.5 867.3MHz, SF9BW125, 4/5CR
2026-05-07 18:39:25 19.25°C 40.5% 6 μg/m³ 6 μg/m³ 3.29V v255 51.9897 / 5.05606 15860 ttn.v3 0.004km -56 12.5 868.3MHz, SF9BW125, 4/5CR
2026-05-07 18:22:08 19.5625°C 39.625% 2 μg/m³ 2 μg/m³ 3.29V v255 51.9897 / 5.05606 15859 ttn.v3 0.004km -55 12.8 867.1MHz, SF9BW125, 4/5CR
2026-05-07 18:04:50 20.1875°C 35.875% 3 μg/m³ 3 μg/m³ 3.29V v255 51.9897 / 5.05606 15858 ttn.v3 0.004km -56 12.2 868.1MHz, SF9BW125, 4/5CR
2026-05-07 17:47:33 21.125°C 33% 3 μg/m³ 4 μg/m³ 3.29V v255 51.9897 / 5.05606 15857 ttn.v3 0.004km -56 12.5 867.9MHz, SF9BW125, 4/5CR
2026-05-07 17:30:16 21.75°C 33.3125% 3 μg/m³ 4 μg/m³ 3.29V v255 51.9897 / 5.05606 15856 ttn.v3 0.004km -57 10 868.5MHz, SF9BW125, 4/5CR
2026-05-07 17:12:59 20.9375°C 32.875% 5 μg/m³ 7 μg/m³ 3.29V v255 51.9897 / 5.05606 15855 ttn.v3 0.004km -55 12.8 867.7MHz, SF9BW125, 4/5CR
2026-05-07 16:55:41 21.625°C 34.5625% 1 μg/m³ 1 μg/m³ 3.29V v255 51.9897 / 5.05606 15854 ttn.v3 0.004km -56 12.2 868.3MHz, SF9BW125, 4/5CR
2026-05-07 16:38:24 21.25°C 34.25% 9 μg/m³ 15 μg/m³ 3.29V v255 51.9897 / 5.05606 15853 ttn.v3 0.004km -55 10.8 867.5MHz, SF9BW125, 4/5CR
2026-05-07 16:21:07 20.9375°C 33.0625% 2 μg/m³ 3 μg/m³ 3.29V v255 51.9897 / 5.05606 15852 ttn.v3 0.004km -57 11.5 868.1MHz, SF9BW125, 4/5CR
2026-05-07 16:03:50 21.1875°C 32.1875% 2 μg/m³ 3 μg/m³ 3.29V v255 51.9897 / 5.05606 15851 ttn.v3 0.004km -55 12.8 867.3MHz, SF9BW125, 4/5CR
2026-05-07 15:46:32 21.8125°C 29.5625% 3 μg/m³ 3 μg/m³ 3.29V v255 51.9897 / 5.05606 15850 ttn.v3 0.004km -56 10.8 868.5MHz, SF9BW125, 4/5CR
2026-05-07 15:29:15 22.5625°C 29.0625% 3 μg/m³ 4 μg/m³ 3.29V v255 51.9897 / 5.05606 15849 ttn.v3 0.004km -54 11.5 867.1MHz, SF9BW125, 4/5CR
2026-05-07 15:11:58 23.1875°C 28% 2 μg/m³ 2 μg/m³ 3.29V v255 51.9897 / 5.05606 15848 ttn.v3 0.004km -56 12.8 868.3MHz, SF9BW125, 4/5CR
2026-05-07 14:54:40 24.6875°C 25.4375% 2 μg/m³ 2 μg/m³ 3.29V v255 51.9897 / 5.05606 15847 ttn.v3 0.004km -56 12.5 867.9MHz, SF9BW125, 4/5CR
2026-05-07 14:37:23 21.8125°C 33.6875% 2 μg/m³ 2 μg/m³ 3.29V v255 51.9897 / 5.05606 15846 ttn.v3 0.004km -56 11.8 868.1MHz, SF9BW125, 4/5CR
2026-05-07 14:20:06 21.125°C 32.25% 5 μg/m³ 7 μg/m³ 3.29V v255 51.9897 / 5.05606 15845 ttn.v3 0.004km -55 12.8 867.7MHz, SF9BW125, 4/5CR
2026-05-07 14:02:48 21°C 34% 4 μg/m³ 5 μg/m³ 3.29V v255 51.9897 / 5.05606 15844 ttn.v3 0.004km -56 10.5 868.5MHz, SF9BW125, 4/5CR
2026-05-07 13:45:31 20.3125°C 36.75% 6 μg/m³ 7 μg/m³ 3.29V v255 51.9897 / 5.05606 15843 ttn.v3 0.004km -55 10.8 867.5MHz, SF9BW125, 4/5CR
2026-05-07 13:28:14 19.6875°C 37.125% 3 μg/m³ 4 μg/m³ 3.29V v255 51.9897 / 5.05606 15842 ttn.v3 0.004km -55 12.5 868.3MHz, SF9BW125, 4/5CR
2026-05-07 13:10:57 19.625°C 37.1875% 3 μg/m³ 4 μg/m³ 3.29V v255 51.9897 / 5.05606 15841 ttn.v3 0.004km -55 11.8 867.3MHz, SF9BW125, 4/5CR
2026-05-07 12:54:21 20.625°C 35.5% 2 μg/m³ 2 μg/m³ 3.29V v255 51.9897 / 5.05606 15840 ttn.v3 0.004km -56 13 868.1MHz, SF12BW125, 4/5CR
2026-05-07 12:36:28 23.125°C 30.625% 2 μg/m³ 2 μg/m³ 3.29V v255 51.9897 / 5.05603 15839 ttn.v3 0.002km -54 11.8 867.1MHz, SF9BW125, 4/5CR
2026-05-07 12:19:10 23°C 33.0625% 2 μg/m³ 2 μg/m³ 3.29V v255 51.9897 / 5.05603 15838 ttn.v3 0.002km -57 10 868.5MHz, SF9BW125, 4/5CR
2026-05-07 12:01:53 21.5625°C 36.75% 3 μg/m³ 3 μg/m³ 3.29V v255 51.9897 / 5.05603 15837 ttn.v3 0.002km -56 12 867.9MHz, SF9BW125, 4/5CR
2026-05-07 11:44:36 19.625°C 40.5625% 3 μg/m³ 4 μg/m³ 3.29V v255 51.9897 / 5.05603 15836 ttn.v3 0.002km -56 11.8 868.3MHz, SF9BW125, 4/5CR
2026-05-07 11:27:19 18.6875°C 43.0625% 2 μg/m³ 2 μg/m³ 3.29V v255 51.9897 / 5.05603 15835 ttn.v3 0.002km -55 13.2 867.7MHz, SF9BW125, 4/5CR
2026-05-07 11:10:02 17.125°C 45.6875% 3 μg/m³ 4 μg/m³ 3.29V v255 51.9897 / 5.05603 15834 ttn.v3 0.002km -56 11.5 868.1MHz, SF9BW125, 4/5CR
2026-05-07 10:52:44 16.25°C 47.375% 2 μg/m³ 2 μg/m³ 3.29V v255 51.9897 / 5.05603 15833 ttn.v3 0.002km -55 9.5 867.5MHz, SF9BW125, 4/5CR
2026-05-07 10:35:27 15.625°C 50.5% 2 μg/m³ 2 μg/m³ 3.29V v255 51.9897 / 5.05603 15832 ttn.v3 0.002km -57 9.8 868.5MHz, SF9BW125, 4/5CR
2026-05-07 10:18:10 14.875°C 52.5625% 4 μg/m³ 4 μg/m³ 3.29V v255 51.9897 / 5.05603 15831 ttn.v3 0.002km -54 12.2 867.3MHz, SF9BW125, 4/5CR
2026-05-07 10:00:52 14.125°C 53.5% 2 μg/m³ 2 μg/m³ 3.29V v255 51.9897 / 5.05603 15830 ttn.v3 0.002km -56 11.8 868.3MHz, SF9BW125, 4/5CR
2026-05-07 09:43:35 13.625°C 54.3125% 2 μg/m³ 2 μg/m³ 3.29V v255 51.9897 / 5.05603 15829 ttn.v3 0.002km -55 12.8 867.1MHz, SF9BW125, 4/5CR
2026-05-07 09:26:18 13.1875°C 56.8125% 2 μg/m³ 3 μg/m³ 3.29V v255 51.9897 / 5.05603 15828 ttn.v3 0.002km -57 13 868.1MHz, SF9BW125, 4/5CR
2026-05-07 09:09:00 12.75°C 59.125% 2 μg/m³ 2 μg/m³ 3.29V v255 51.9897 / 5.05603 15827 ttn.v3 0.002km -56 11.2 867.9MHz, SF9BW125, 4/5CR
2026-05-07 08:51:43 12.0625°C 62.9375% 4 μg/m³ 4 μg/m³ 3.29V v255 51.9897 / 5.05603 15826 ttn.v3 0.002km -59 8.8 868.5MHz, SF9BW125, 4/5CR
2026-05-07 08:34:25 11.125°C 69.625% 6 μg/m³ 7 μg/m³ 3.29V v255 51.9897 / 5.05603 15825 ttn.v3 0.002km -56 12 867.7MHz, SF9BW125, 4/5CR
2026-05-07 08:17:08 10.5625°C 70.375% 11 μg/m³ 11 μg/m³ 3.29V v255 51.9897 / 5.05603 15824 ttn.v3 0.002km -56 11.8 868.3MHz, SF9BW125, 4/5CR
2026-05-07 07:59:50 10.1875°C 70.0625% 10 μg/m³ 10 μg/m³ 3.29V v255 51.9897 / 5.05603 15823 ttn.v3 0.002km -56 10 867.5MHz, SF9BW125, 4/5CR
2026-05-07 07:42:32 9.75°C 70.4375% 7 μg/m³ 7 μg/m³ 3.29V v255 51.9897 / 5.05603 15822 ttn.v3 0.002km -57 13 868.1MHz, SF9BW125, 4/5CR
2026-05-07 07:25:15 9.375°C 70.375% 6 μg/m³ 6 μg/m³ 3.29V v255 51.9897 / 5.05603 15821 ttn.v3 0.002km -55 12.5 867.3MHz, SF9BW125, 4/5CR
2026-05-07 07:07:57 9.125°C 70.25% 9 μg/m³ 11 μg/m³ 3.29V v255 51.9897 / 5.05603 15820 ttn.v3 0.002km -57 8.8 868.5MHz, SF9BW125, 4/5CR
2026-05-07 06:50:39 9.125°C 68.125% 6 μg/m³ 8 μg/m³ 3.29V v255 51.9897 / 5.05603 15819 ttn.v3 0.002km -56 12 867.1MHz, SF9BW125, 4/5CR
2026-05-07 06:33:22 9.125°C 68.6875% 10 μg/m³ 10 μg/m³ 3.29V v255 51.9897 / 5.05603 15818 ttn.v3 0.002km -57 13 868.3MHz, SF9BW125, 4/5CR
2026-05-07 06:16:04 8.9375°C 67.4375% 8 μg/m³ 10 μg/m³ 3.29V v255 51.9897 / 5.05603 15817 ttn.v3 0.002km -57 13 867.9MHz, SF9BW125, 4/5CR
2026-05-07 05:58:46 9°C 67.375% 5 μg/m³ 6 μg/m³ 3.29V v255 51.9897 / 5.05603 15816 ttn.v3 0.002km -57 12.5 868.1MHz, SF9BW125, 4/5CR
2026-05-07 05:41:29 9.1875°C 66.4375% 4 μg/m³ 4 μg/m³ 3.29V v255 51.9897 / 5.05603 15815 ttn.v3 0.002km -54 11.8 867.7MHz, SF9BW125, 4/5CR
2026-05-07 05:24:11 9.625°C 64.1875% 2 μg/m³ 2 μg/m³ 3.29V v255 51.9897 / 5.05603 15814 ttn.v3 0.002km -57 9.8 868.5MHz, SF9BW125, 4/5CR
2026-05-07 05:06:53 10.25°C 63.0625% 5 μg/m³ 6 μg/m³ 3.29V v255 51.9897 / 5.05603 15813 ttn.v3 0.002km -55 9.8 867.5MHz, SF9BW125, 4/5CR
2026-05-07 04:49:36 10.6875°C 62.625% 3 μg/m³ 3 μg/m³ 3.29V v255 51.9897 / 5.05603 15812 ttn.v3 0.002km -56 12.2 868.3MHz, SF9BW125, 4/5CR
2026-05-07 04:32:18 11.0625°C 61.4375% 2 μg/m³ 2 μg/m³ 3.29V v255 51.9897 / 5.05603 15811 ttn.v3 0.002km -54 12 867.3MHz, SF9BW125, 4/5CR
2026-05-07 04:15:01 11.3125°C 59.625% 2 μg/m³ 2 μg/m³ 3.29V v255 51.9897 / 5.05603 15810 ttn.v3 0.002km -56 11.8 868.1MHz, SF9BW125, 4/5CR
2026-05-07 03:57:43 11.5625°C 59.5625% 1 μg/m³ 1 μg/m³ 3.29V v255 51.9897 / 5.05603 15809 ttn.v3 0.002km -55 13.2 867.1MHz, SF9BW125, 4/5CR
2026-05-07 03:40:25 11.5625°C 58.625% 3 μg/m³ 4 μg/m³ 3.29V v255 51.9897 / 5.05603 15808 ttn.v3 0.002km -58 8.8 868.5MHz, SF9BW125, 4/5CR
2026-05-07 03:23:08 11.5625°C 59.0625% 2 μg/m³ 2 μg/m³ 3.29V v255 51.9897 / 5.05603 15807 ttn.v3 0.002km -60 12.5 867.9MHz, SF9BW125, 4/5CR
2026-05-07 03:05:50 11.75°C 58.75% 2 μg/m³ 3 μg/m³ 3.29V v255 51.9897 / 5.05603 15806 ttn.v3 0.002km -57 13 868.3MHz, SF9BW125, 4/5CR
2026-05-07 02:48:33 12°C 58.375% 5 μg/m³ 7 μg/m³ 3.29V v255 51.9897 / 5.05603 15805 ttn.v3 0.002km -56 11.8 867.7MHz, SF9BW125, 4/5CR
2026-05-07 02:31:15 12.125°C 57.6875% 2 μg/m³ 2 μg/m³ 3.29V v255 51.9897 / 5.05603 15804 ttn.v3 0.002km -57 13.2 868.1MHz, SF9BW125, 4/5CR
2026-05-07 02:13:58 12.125°C 57.375% 4 μg/m³ 4 μg/m³ 3.29V v255 51.9897 / 5.05603 15803 ttn.v3 0.002km -56 10.5 867.5MHz, SF9BW125, 4/5CR
2026-05-07 01:56:40 12.625°C 57.0625% 2 μg/m³ 2 μg/m³ 3.29V v255 51.9897 / 5.05603 15802 ttn.v3 0.002km -56 9.2 868.5MHz, SF9BW125, 4/5CR
2026-05-07 01:39:23 12.875°C 55.125% 3 μg/m³ 3 μg/m³ 3.29V v255 51.9897 / 5.05603 15801 ttn.v3 0.002km -55 13 867.3MHz, SF9BW125, 4/5CR
2026-05-07 01:22:05 13.0625°C 54.25% 2 μg/m³ 2 μg/m³ 3.29V v255 51.9897 / 5.05603 15800 ttn.v3 0.002km -57 13 868.3MHz, SF9BW125, 4/5CR
2026-05-07 01:04:48 13.3125°C 53.5% 4 μg/m³ 4 μg/m³ 3.29V v255 51.9897 / 5.05603 15799 ttn.v3 0.002km -55 12.8 867.1MHz, SF9BW125, 4/5CR
2026-05-07 00:47:31 13.625°C 54.1875% 3 μg/m³ 3 μg/m³ 3.29V v255 51.9897 / 5.05603 15798 ttn.v3 0.002km -57 12.5 868.1MHz, SF9BW125, 4/5CR
2026-05-07 00:30:13 13.6875°C 52.5% 4 μg/m³ 4 μg/m³ 3.29V v255 51.9897 / 5.05603 15797 ttn.v3 0.002km -59 11.8 867.9MHz, SF9BW125, 4/5CR
2026-05-07 00:12:56 13.75°C 52.0625% 5 μg/m³ 5 μg/m³ 3.29V v255 51.9897 / 5.05603 15796 ttn.v3 0.002km -58 9.2 868.5MHz, SF9BW125, 4/5CR
2026-05-06 23:55:39 13.875°C 53.4375% 3 μg/m³ 3 μg/m³ 3.29V v255 51.9897 / 5.05603 15795 ttn.v3 0.002km -55 13 867.7MHz, SF9BW125, 4/5CR
2026-05-06 23:38:21 13.875°C 53.125% 5 μg/m³ 5 μg/m³ 3.29V v255 51.9897 / 5.05603 15794 ttn.v3 0.002km -56 12 868.3MHz, SF9BW125, 4/5CR
2026-05-06 23:21:04 14.25°C 52.9375% 3 μg/m³ 3 μg/m³ 3.29V v255 51.9897 / 5.05603 15793 ttn.v3 0.002km -59 8.5 867.5MHz, SF9BW125, 4/5CR
2026-05-06 23:03:47 14°C 54.5% 5 μg/m³ 6 μg/m³ 3.29V v255 51.9897 / 5.05603 15792 ttn.v3 0.002km -57 12 868.1MHz, SF9BW125, 4/5CR
2026-05-06 22:46:29 14.125°C 56.3125% 5 μg/m³ 6 μg/m³ 3.29V v255 51.9897 / 5.05603 15791 ttn.v3 0.002km -55 13.2 867.3MHz, SF9BW125, 4/5CR
2026-05-06 22:29:12 14.5625°C 58.4375% 6 μg/m³ 6 μg/m³ 3.29V v255 51.9897 / 5.05603 15790 ttn.v3 0.002km -57 10.2 868.5MHz, SF9BW125, 4/5CR
2026-05-06 22:11:55 14.625°C 56.125% 4 μg/m³ 4 μg/m³ 3.29V v255 51.9897 / 5.05603 15789 ttn.v3 0.002km -55 13 867.1MHz, SF9BW125, 4/5CR
2026-05-06 21:54:37 14.75°C 52.3125% 5 μg/m³ 5 μg/m³ 3.29V v255 51.9897 / 5.05603 15788 ttn.v3 0.002km -56 12 868.3MHz, SF9BW125, 4/5CR
2026-05-06 21:37:20 15.125°C 49.25% 3 μg/m³ 3 μg/m³ 3.29V v255 51.9897 / 5.05603 15787 ttn.v3 0.002km -56 11.8 867.9MHz, SF9BW125, 4/5CR
2026-05-06 21:20:03 15.25°C 46.8125% 4 μg/m³ 5 μg/m³ 3.29V v255 51.9897 / 5.05603 15786 ttn.v3 0.002km -56 12.2 868.1MHz, SF9BW125, 4/5CR
2026-05-06 21:02:45 15.5°C 47.375% 3 μg/m³ 3 μg/m³ 3.29V v255 51.9897 / 5.05603 15785 ttn.v3 0.002km -55 12.8 867.7MHz, SF9BW125, 4/5CR
2026-05-06 20:45:28 15.5°C 44.25% 3 μg/m³ 3 μg/m³ 3.29V v255 51.9897 / 5.05603 15784 ttn.v3 0.002km -56 10 868.5MHz, SF9BW125, 4/5CR
2026-05-06 20:28:11 15.5°C 44.125% 4 μg/m³ 4 μg/m³ 3.29V v255 51.9897 / 5.05603 15783 ttn.v3 0.002km -55 10 867.5MHz, SF9BW125, 4/5CR
2026-05-06 20:10:54 15.875°C 42% 2 μg/m³ 2 μg/m³ 3.29V v255 51.9897 / 5.05603 15782 ttn.v3 0.002km -56 11.8 868.3MHz, SF9BW125, 4/5CR
2026-05-06 19:53:36 16.1875°C 41.9375% 2 μg/m³ 2 μg/m³ 3.29V v255 51.9897 / 5.05603 15781 ttn.v3 0.002km -54 11 867.3MHz, SF9BW125, 4/5CR
2026-05-06 19:36:19 16.625°C 41.25% 3 μg/m³ 3 μg/m³ 3.29V v255 51.9897 / 5.05603 15780 ttn.v3 0.002km -56 12.2 868.1MHz, SF9BW125, 4/5CR
2026-05-06 19:19:02 16.875°C 41.75% 3 μg/m³ 3 μg/m³ 3.29V v255 51.9897 / 5.05603 15779 ttn.v3 0.002km -55 13 867.1MHz, SF9BW125, 4/5CR
2026-05-06 19:01:45 17.25°C 42.125% 3 μg/m³ 3 μg/m³ 3.29V v255 51.9897 / 5.05603 15778 ttn.v3 0.002km -56 9.8 868.5MHz, SF9BW125, 4/5CR
2026-05-06 18:44:28 17.3125°C 40.875% 3 μg/m³ 3 μg/m³ 3.29V v255 51.9897 / 5.05603 15777 ttn.v3 0.002km -56 12.2 867.9MHz, SF9BW125, 4/5CR
2026-05-06 18:27:10 17.125°C 41.4375% 4 μg/m³ 4 μg/m³ 3.29V v255 51.9897 / 5.05603 15776 ttn.v3 0.002km -56 12.5 868.3MHz, SF9BW125, 4/5CR
2026-05-06 18:09:53 17.125°C 41.25% 2 μg/m³ 2 μg/m³ 3.29V v255 51.9897 / 5.05603 15775 ttn.v3 0.002km -55 12.5 867.7MHz, SF9BW125, 4/5CR
2026-05-06 17:52:36 16.9375°C 40.3125% 5 μg/m³ 5 μg/m³ 3.29V v255 51.9897 / 5.05603 15774 ttn.v3 0.002km -56 12 868.1MHz, SF9BW125, 4/5CR
2026-05-06 17:35:19 17.0625°C 37.875% 2 μg/m³ 2 μg/m³ 3.29V v255 51.9897 / 5.05603 15773 ttn.v3 0.002km -55 9.5 867.5MHz, SF9BW125, 4/5CR
2026-05-06 17:18:01 16.75°C 38.5% 2 μg/m³ 2 μg/m³ 3.29V v255 51.9897 / 5.05603 15772 ttn.v3 0.002km -56 10 868.5MHz, SF9BW125, 4/5CR
2026-05-06 17:00:44 17.0625°C 38.0625% 3 μg/m³ 3 μg/m³ 3.29V v255 51.9897 / 5.05603 15771 ttn.v3 0.002km -54 11.8 867.3MHz, SF9BW125, 4/5CR
2026-05-06 16:43:27 16.875°C 39.5625% 4 μg/m³ 7 μg/m³ 3.29V v255 51.9897 / 5.05603 15770 ttn.v3 0.002km -56 12 868.3MHz, SF9BW125, 4/5CR
2026-05-06 16:26:10 17.0625°C 40.8125% 5 μg/m³ 6 μg/m³ 3.29V v255 51.9897 / 5.05603 15769 ttn.v3 0.002km -54 12.5 867.1MHz, SF9BW125, 4/5CR
2026-05-06 16:08:52 16.75°C 40.0625% 2 μg/m³ 3 μg/m³ 3.29V v255 51.9897 / 5.05603 15768 ttn.v3 0.002km -56 12 868.1MHz, SF9BW125, 4/5CR
2026-05-06 15:51:35 16.4375°C 39.625% 2 μg/m³ 3 μg/m³ 3.29V v255 51.9897 / 5.05603 15767 ttn.v3 0.002km -56 12.5 867.9MHz, SF9BW125, 4/5CR
2026-05-06 15:34:18 16.625°C 38.4375% 3 μg/m³ 4 μg/m³ 3.29V v255 51.9897 / 5.05603 15766 ttn.v3 0.002km -56 10 868.5MHz, SF9BW125, 4/5CR
2026-05-06 15:17:01 17.1875°C 37.1875% 1 μg/m³ 2 μg/m³ 3.29V v255 51.9897 / 5.05603 15765 ttn.v3 0.002km -55 13 867.7MHz, SF9BW125, 4/5CR
2026-05-06 14:59:43 18.5625°C 34.25% 2 μg/m³ 2 μg/m³ 3.29V v255 51.9897 / 5.05603 15764 ttn.v3 0.002km -56 12.2 868.3MHz, SF9BW125, 4/5CR
2026-05-06 14:42:26 19.0625°C 33.375% 2 μg/m³ 2 μg/m³ 3.29V v255 51.9897 / 5.05603 15763 ttn.v3 0.002km -55 9.8 867.5MHz, SF9BW125, 4/5CR
2026-05-06 14:25:09 19.9375°C 32.6875% 2 μg/m³ 2 μg/m³ 3.29V v255 51.9897 / 5.05603 15762 ttn.v3 0.002km -56 12.8 868.1MHz, SF9BW125, 4/5CR
2026-05-06 14:07:52 20.3125°C 34.375% 3 μg/m³ 3 μg/m³ 3.29V v255 51.9897 / 5.05603 15761 ttn.v3 0.002km -54 11.8 867.3MHz, SF9BW125, 4/5CR
2026-05-06 13:50:35 19.6875°C 36.1875% 5 μg/m³ 5 μg/m³ 3.29V v255 51.9897 / 5.05603 15760 ttn.v3 0.002km -56 10.2 868.5MHz, SF9BW125, 4/5CR
2026-05-06 13:33:17 19.5°C 36.625% 2 μg/m³ 2 μg/m³ 3.29V v255 51.9897 / 5.05603 15759 ttn.v3 0.002km -54 11.8 867.1MHz, SF9BW125, 4/5CR
2026-05-06 13:16:00 19.8125°C 34.5% 4 μg/m³ 4 μg/m³ 3.29V v255 51.9897 / 5.05603 15758 ttn.v3 0.002km -56 12 868.3MHz, SF9BW125, 4/5CR
2026-05-06 12:58:43 18.9375°C 35.25% 3 μg/m³ 3 μg/m³ 3.29V v255 51.9897 / 5.05603 15757 ttn.v3 0.002km -55 12.5 867.9MHz, SF9BW125, 4/5CR
2026-05-06 12:41:26 18.75°C 35.4375% 4 μg/m³ 4 μg/m³ 3.29V v255 51.9897 / 5.05603 15756 ttn.v3 0.002km -56 12 868.1MHz, SF9BW125, 4/5CR
2026-05-06 12:24:08 20.75°C 32.4375% 4 μg/m³ 4 μg/m³ 3.29V v255 51.9897 / 5.05603 15755 ttn.v3 0.002km -54 11 867.7MHz, SF9BW125, 4/5CR
2026-05-06 12:06:51 19.1875°C 32.75% 6 μg/m³ 6 μg/m³ 3.29V v255 51.9897 / 5.05603 15754 ttn.v3 0.002km -56 10.2 868.5MHz, SF9BW125, 4/5CR

Message count: 200
Node count: 1

Messages per node

Number of messages in list aboveNodes
200

Statistics per gateway

GatewayNumber of messagesNumber of nodesNodes
2001 (0.002km)

Filter by dataset